Time;durP1;ratioP1;P1;durP2;ratioP2;P2;SDS_P1;SDS_P2;PMS_P1;PMS_P2;Temp;Humidity;BMP_temperature;BMP_pressure;BME280_temperature;BME280_humidity;BME280_pressure;Samples;Min_cycle;Max_cycle;Signal;HPM_P1;HPM_P2
2021/04/08 00:00:56;;;;;;;13.03;4.60;;;2.40;99.90;;;;;;4970850;28;20145;-68
2021/04/08 00:03:22;;;;;;;10.43;3.83;;;2.50;99.90;;;;;;4974501;28;20046;-68
2021/04/08 00:05:49;;;;;;;10.30;4.20;;;2.40;99.90;;;;;;4969785;28;20119;-68
2021/04/08 00:08:15;;;;;;;17.43;4.53;;;2.40;99.90;;;;;;4972813;28;20058;-68
2021/04/08 00:10:42;;;;;;;19.80;6.33;;;2.40;99.90;;;;;;4971810;28;20051;-68
2021/04/08 00:13:09;;;;;;;12.83;4.93;;;2.40;99.90;;;;;;4970095;28;20051;-68
2021/04/08 00:15:35;;;;;;;16.37;4.60;;;2.40;99.90;;;;;;4980520;28;20565;-68
2021/04/08 00:18:03;;;;;;;15.83;5.03;;;2.30;99.90;;;;;;4980269;28;20050;-68
2021/04/08 00:20:29;;;;;;;11.10;4.33;;;2.30;99.90;;;;;;4981352;28;20078;-68
2021/04/08 00:22:56;;;;;;;18.13;5.00;;;2.30;99.90;;;;;;4978942;28;20093;-68
2021/04/08 00:25:22;;;;;;;10.97;4.77;;;2.30;99.90;;;;;;4969969;28;20050;-68
2021/04/08 00:27:49;;;;;;;15.77;5.17;;;2.30;99.90;;;;;;4969579;28;20812;-68
2021/04/08 00:30:16;;;;;;;13.63;5.00;;;2.30;99.90;;;;;;4969822;28;20054;-68
2021/04/08 00:32:42;;;;;;;14.13;5.73;;;2.30;99.90;;;;;;4972523;28;20389;-68
2021/04/08 00:35:11;;;;;;;13.50;4.43;;;2.30;99.90;;;;;;4968779;28;20054;-68
2021/04/08 00:37:37;;;;;;;15.77;5.33;;;2.30;99.90;;;;;;4971862;28;20051;-68
2021/04/08 00:40:08;;;;;;;11.30;4.57;;;2.30;99.90;;;;;;4970920;28;20795;-68
2021/04/08 00:42:34;;;;;;;12.90;4.70;;;2.30;99.90;;;;;;4971518;28;20499;-68
2021/04/08 00:45:05;;;;;;;21.03;5.40;;;2.20;99.90;;;;;;4971080;28;20046;-68
2021/04/08 00:47:32;;;;;;;11.07;4.47;;;2.20;99.90;;;;;;4967597;28;20050;-68
2021/04/08 00:49:58;;;;;;;14.23;5.17;;;2.20;99.90;;;;;;4978494;28;20058;-69
2021/04/08 00:52:26;;;;;;;13.80;4.37;;;2.20;99.90;;;;;;4972106;28;20047;-68
2021/04/08 00:54:53;;;;;;;16.97;5.10;;;2.10;99.90;;;;;;4965348;28;20543;-68
2021/04/08 00:57:19;;;;;;;9.47;4.50;;;2.10;99.90;;;;;;4972045;28;20057;-68
2021/04/08 00:59:47;;;;;;;11.40;5.17;;;2.10;99.90;;;;;;4969415;28;20054;-68
2021/04/08 01:02:13;;;;;;;9.93;4.53;;;2.10;99.90;;;;;;4969410;28;20047;-68
2021/04/08 01:04:40;;;;;;;13.33;5.50;;;2.10;99.90;;;;;;4969708;28;20051;-68
2021/04/08 01:07:07;;;;;;;11.10;4.80;;;2.10;99.90;;;;;;4969814;28;20132;-68
2021/04/08 01:09:34;;;;;;;15.07;5.20;;;2.10;99.90;;;;;;4976928;28;20047;-68
2021/04/08 01:12:01;;;;;;;10.67;5.17;;;2.00;99.90;;;;;;4967427;28;20059;-69
2021/04/08 01:14:27;;;;;;;14.83;5.23;;;2.10;99.90;;;;;;4974155;28;20059;-68
2021/04/08 01:17:00;;;;;;;12.47;4.80;;;2.10;99.90;;;;;;4975327;28;20110;-68
2021/04/08 01:20:08;;;;;;;14.77;5.00;;;2.10;99.90;;;;;;4979860;28;20395;-68
2021/04/08 01:23:02;;;;;;;11.77;4.57;;;2.10;99.90;;;;;;4914547;29;20048;-68
2021/04/08 01:26:19;;;;;;;12.30;5.20;;;2.10;99.90;;;;;;4982458;28;20050;-68
2021/04/08 01:28:49;;;;;;;9.00;4.70;;;2.10;99.90;;;;;;4947883;28;20054;-68
2021/04/08 01:31:18;;;;;;;17.03;5.40;;;2.10;99.90;;;;;;4957743;28;20059;-68
2021/04/08 01:33:48;;;;;;;16.93;5.20;;;2.10;99.90;;;;;;4971781;28;20081;-68
2021/04/08 01:36:21;;;;;;;12.93;5.30;;;2.10;99.90;;;;;;4973791;28;20046;-68
2021/04/08 01:38:51;;;;;;;17.27;5.90;;;2.10;99.90;;;;;;4973451;28;20054;-68
2021/04/08 01:41:20;;;;;;;15.33;5.57;;;2.10;99.90;;;;;;4977301;28;20050;-68
2021/04/08 01:43:49;;;;;;;17.27;4.77;;;2.10;99.90;;;;;;4981790;28;20423;-68
2021/04/08 01:46:20;;;;;;;13.57;4.87;;;2.10;99.90;;;;;;4979818;28;20047;-68
2021/04/08 01:48:49;;;;;;;12.40;4.50;;;2.10;99.90;;;;;;4975312;28;20054;-68
2021/04/08 01:51:16;;;;;;;16.87;4.97;;;2.10;99.90;;;;;;4972285;28;20097;-68
2021/04/08 01:53:47;;;;;;;15.13;5.50;;;2.10;99.90;;;;;;4973209;28;20054;-68
2021/04/08 01:56:17;;;;;;;12.67;4.63;;;2.10;99.90;;;;;;4977293;28;20112;-68
2021/04/08 01:58:45;;;;;;;9.37;4.90;;;2.00;99.90;;;;;;4980829;28;20054;-68
2021/04/08 02:01:12;;;;;;;14.57;5.07;;;2.00;99.90;;;;;;4975938;28;20062;-68
2021/04/08 02:03:42;;;;;;;14.37;5.63;;;2.00;99.90;;;;;;4982121;28;20666;-68
2021/04/08 02:06:10;;;;;;;11.60;4.97;;;2.10;99.90;;;;;;4975189;28;20051;-68
2021/04/08 02:08:40;;;;;;;13.40;4.83;;;2.10;99.90;;;;;;4971341;28;20117;-68
2021/04/08 02:11:10;;;;;;;14.40;5.53;;;2.10;99.90;;;;;;4972996;28;20051;-68
2021/04/08 02:13:39;;;;;;;15.67;5.63;;;2.10;99.90;;;;;;4981503;28;20066;-68
2021/04/08 02:16:08;;;;;;;13.07;4.87;;;2.10;99.90;;;;;;4970245;28;20089;-68
2021/04/08 02:18:36;;;;;;;13.57;5.20;;;2.20;99.90;;;;;;4969115;28;20508;-68
2021/04/08 02:21:04;;;;;;;19.03;5.43;;;2.10;99.90;;;;;;4974990;28;20063;-68
2021/04/08 02:23:34;;;;;;;9.37;5.13;;;2.10;99.90;;;;;;4970953;28;20538;-68
2021/04/08 02:26:01;;;;;;;15.63;5.20;;;2.20;99.90;;;;;;4982623;28;20088;-68
2021/04/08 02:28:30;;;;;;;23.17;6.00;;;2.10;99.90;;;;;;4976258;28;20070;-69
2021/04/08 02:30:59;;;;;;;16.43;5.27;;;2.10;99.90;;;;;;4976486;28;20829;-68
2021/04/08 02:33:28;;;;;;;22.40;6.73;;;2.20;99.90;;;;;;4977809;28;20574;-68
2021/04/08 02:35:56;;;;;;;12.80;5.37;;;2.20;99.90;;;;;;4978194;28;20055;-69
2021/04/08 02:38:27;;;;;;;20.93;6.37;;;2.10;99.90;;;;;;4974301;28;20055;-68
2021/04/08 02:40:54;;;;;;;16.63;6.87;;;2.10;99.90;;;;;;4977184;28;20857;-68
2021/04/08 02:43:21;;;;;;;15.57;5.43;;;2.20;99.90;;;;;;4977676;28;20057;-69
2021/04/08 02:45:47;;;;;;;13.60;5.70;;;2.10;99.90;;;;;;4972909;28;20513;-69
2021/04/08 02:48:16;;;;;;;17.43;6.20;;;2.10;99.90;;;;;;4973953;28;20680;-69
2021/04/08 02:50:45;;;;;;;13.00;5.03;;;2.10;99.90;;;;;;4974979;28;20086;-68
2021/04/08 02:53:19;;;;;;;13.37;5.43;;;2.20;99.90;;;;;;4967340;28;20101;-68
2021/04/08 02:55:53;;;;;;;19.47;6.10;;;2.20;99.90;;;;;;4973944;28;20080;-68
2021/04/08 02:58:20;;;;;;;19.43;5.47;;;2.10;99.90;;;;;;4975506;28;20515;-68
2021/04/08 03:00:52;;;;;;;15.97;4.93;;;2.10;99.90;;;;;;4972820;28;20050;-69
2021/04/08 03:03:21;;;;;;;15.53;6.17;;;2.00;99.90;;;;;;4974212;28;20070;-68
2021/04/08 03:05:48;;;;;;;11.23;4.73;;;2.20;99.90;;;;;;4967856;28;20117;-69
2021/04/08 03:08:19;;;;;;;11.73;5.73;;;2.20;99.90;;;;;;4968153;28;20051;-69
2021/04/08 03:10:47;;;;;;;16.20;5.33;;;2.20;99.90;;;;;;4968013;28;20526;-69
2021/04/08 03:13:15;;;;;;;14.63;5.30;;;2.20;99.90;;;;;;4973449;28;20422;-68
2021/04/08 03:15:44;;;;;;;15.67;5.67;;;2.30;99.90;;;;;;5136411;23;20632;-72
2021/04/08 03:18:15;;;;;;;15.03;6.33;;;2.20;99.90;;;;;;4982273;28;20042;-71
2021/04/08 03:20:44;;;;;;;15.17;5.00;;;2.20;99.90;;;;;;4979416;28;20062;-72
2021/04/08 03:23:12;;;;;;;10.37;5.07;;;2.10;99.90;;;;;;4983762;28;20124;-72
2021/04/08 03:25:40;;;;;;;18.90;5.47;;;2.10;99.90;;;;;;4978846;28;20503;-71
2021/04/08 03:28:13;;;;;;;15.20;6.83;;;2.10;99.90;;;;;;4970346;28;20055;-71
2021/04/08 03:30:40;;;;;;;19.77;6.20;;;1.90;99.90;;;;;;4969793;28;20050;-71
2021/04/08 03:33:07;;;;;;;14.27;5.87;;;1.90;99.90;;;;;;4973926;28;20472;-72
2021/04/08 03:35:36;;;;;;;16.10;5.00;;;1.90;99.90;;;;;;4977808;28;20518;-71
2021/04/08 03:38:02;;;;;;;16.23;5.80;;;1.90;99.90;;;;;;4969887;28;20058;-71
2021/04/08 03:40:29;;;;;;;18.63;6.47;;;1.80;99.90;;;;;;4971816;28;20047;-72
2021/04/08 03:42:57;;;;;;;14.07;5.70;;;1.80;99.90;;;;;;4974259;28;20407;-72
2021/04/08 03:45:25;;;;;;;21.13;6.77;;;1.80;99.90;;;;;;4976531;28;20050;-72
2021/04/08 03:47:52;;;;;;;17.07;5.70;;;1.70;99.90;;;;;;4975725;28;20043;-71
2021/04/08 03:50:20;;;;;;;19.07;6.37;;;1.60;99.90;;;;;;4974063;28;20499;-72
2021/04/08 03:52:47;;;;;;;15.97;6.50;;;1.60;99.90;;;;;;4971421;28;20422;-71
2021/04/08 03:55:14;;;;;;;16.83;7.73;;;1.60;99.90;;;;;;4974200;28;20057;-72
2021/04/08 03:57:44;;;;;;;18.80;6.43;;;1.50;99.90;;;;;;4974211;28;20050;-70
2021/04/08 04:00:12;;;;;;;13.63;5.67;;;1.40;99.90;;;;;;4974934;28;20096;-72
2021/04/08 04:02:41;;;;;;;14.50;6.47;;;1.40;99.90;;;;;;4973495;28;20051;-72
2021/04/08 04:05:10;;;;;;;14.67;6.50;;;1.40;99.90;;;;;;4979479;28;20050;-72
2021/04/08 04:07:37;;;;;;;16.73;6.30;;;1.40;99.90;;;;;;4975291;28;20050;-71
2021/04/08 04:10:05;;;;;;;13.30;6.03;;;1.30;99.90;;;;;;4969935;28;20526;-72
2021/04/08 04:12:34;;;;;;;17.43;6.67;;;1.30;99.90;;;;;;4976475;28;20061;-72
2021/04/08 04:15:04;;;;;;;16.30;7.30;;;1.30;99.90;;;;;;4975980;28;20047;-71
2021/04/08 04:17:32;;;;;;;16.07;6.40;;;1.20;99.90;;;;;;4975224;28;20058;-71
2021/04/08 04:20:00;;;;;;;14.80;6.60;;;1.10;99.90;;;;;;4974835;28;20058;-72
2021/04/08 04:22:27;;;;;;;17.57;6.83;;;1.20;99.90;;;;;;4976231;28;20502;-72
2021/04/08 04:24:54;;;;;;;13.87;6.83;;;1.10;99.90;;;;;;4974703;28;20466;-71
2021/04/08 04:27:20;;;;;;;19.37;7.50;;;1.10;99.90;;;;;;4972403;28;20051;-72
2021/04/08 04:29:48;;;;;;;17.07;7.30;;;1.10;99.90;;;;;;4976051;28;20101;-72
2021/04/08 04:32:15;;;;;;;20.43;7.57;;;1.10;99.90;;;;;;4975618;28;20104;-71
2021/04/08 04:34:43;;;;;;;17.40;7.57;;;1.00;99.90;;;;;;4975901;28;20057;-72
2021/04/08 04:37:11;;;;;;;20.70;8.10;;;1.30;99.90;;;;;;4976864;28;20053;-71
2021/04/08 04:39:39;;;;;;;20.03;7.30;;;1.30;99.90;;;;;;4973957;28;20499;-72
2021/04/08 04:42:07;;;;;;;14.23;7.20;;;1.20;99.90;;;;;;4976167;28;20052;-72
2021/04/08 04:44:33;;;;;;;14.20;6.60;;;1.20;99.90;;;;;;4973965;28;20108;-71
2021/04/08 04:47:01;;;;;;;18.17;7.47;;;1.20;99.90;;;;;;4973373;28;20050;-72
2021/04/08 04:49:28;;;;;;;16.63;7.17;;;1.20;99.90;;;;;;4974090;28;20046;-72
2021/04/08 04:51:54;;;;;;;17.30;7.73;;;1.20;99.90;;;;;;4977320;28;20086;-70
2021/04/08 04:54:22;;;;;;;21.37;6.67;;;1.30;99.90;;;;;;4978458;28;20042;-72
2021/04/08 04:56:49;;;;;;;18.03;7.73;;;1.30;99.90;;;;;;4977639;28;20050;-70
2021/04/08 04:59:15;;;;;;;21.93;7.77;;;1.30;99.90;;;;;;4975910;28;20407;-72
2021/04/08 05:01:42;;;;;;;11.43;5.73;;;1.30;99.90;;;;;;4976930;28;20602;-71
2021/04/08 05:04:10;;;;;;;14.13;6.83;;;1.20;99.90;;;;;;4978505;28;20042;-71
2021/04/08 05:06:36;;;;;;;16.73;7.33;;;1.30;99.90;;;;;;4978041;28;20817;-71
2021/04/08 05:09:03;;;;;;;19.57;7.33;;;1.30;99.90;;;;;;4979018;28;20120;-72
2021/04/08 05:11:32;;;;;;;17.30;7.63;;;1.40;99.90;;;;;;4975738;28;20418;-71
2021/04/08 05:13:59;;;;;;;15.80;7.83;;;1.50;99.90;;;;;;4982438;28;20388;-71
2021/04/08 05:16:25;;;;;;;21.33;8.47;;;1.60;99.90;;;;;;4984255;28;20055;-71
2021/04/08 05:18:55;;;;;;;16.83;7.47;;;1.60;99.90;;;;;;4978555;28;20042;-71
2021/04/08 05:21:21;;;;;;;19.00;7.93;;;1.70;99.90;;;;;;4979183;28;20092;-72
2021/04/08 05:23:48;;;;;;;21.47;7.13;;;1.70;99.90;;;;;;4980200;28;20051;-71
2021/04/08 05:26:14;;;;;;;19.40;7.37;;;1.70;99.90;;;;;;4975217;28;20046;-71
2021/04/08 05:28:42;;;;;;;13.27;6.47;;;1.70;99.90;;;;;;4980004;28;20049;-71
2021/04/08 05:31:09;;;;;;;16.10;7.80;;;1.60;99.90;;;;;;4979424;28;20047;-70
2021/04/08 05:33:36;;;;;;;19.40;7.30;;;1.70;99.90;;;;;;4978096;28;20054;-71
2021/04/08 05:36:03;;;;;;;18.77;7.23;;;1.60;99.90;;;;;;4982044;28;20414;-71
2021/04/08 05:38:29;;;;;;;20.30;7.83;;;1.60;99.90;;;;;;4977349;28;20054;-71
2021/04/08 05:40:56;;;;;;;17.00;7.00;;;1.60;99.90;;;;;;4980664;28;20054;-71
2021/04/08 05:43:22;;;;;;;15.57;6.87;;;1.70;99.90;;;;;;4979692;28;20047;-72
2021/04/08 05:45:50;;;;;;;17.30;6.80;;;1.60;99.90;;;;;;4981249;28;20069;-71
2021/04/08 05:48:17;;;;;;;20.93;8.20;;;1.60;99.90;;;;;;4982338;28;20540;-72
2021/04/08 05:50:43;;;;;;;18.63;7.70;;;1.70;99.90;;;;;;4981394;28;20419;-72
2021/04/08 05:53:10;;;;;;;17.70;7.13;;;1.70;99.90;;;;;;4976597;28;20079;-72
2021/04/08 05:55:37;;;;;;;13.40;6.83;;;1.80;99.90;;;;;;4979714;28;20046;-72
2021/04/08 05:58:04;;;;;;;19.70;6.93;;;1.80;99.90;;;;;;4977841;28;20499;-72
2021/04/08 06:00:30;;;;;;;17.50;6.73;;;1.80;99.90;;;;;;4981112;28;20287;-72
2021/04/08 06:02:57;;;;;;;14.70;7.40;;;1.90;99.90;;;;;;4978953;28;20420;-71
2021/04/08 06:05:24;;;;;;;22.27;8.90;;;1.90;99.90;;;;;;4979729;28;20268;-72
2021/04/08 06:07:51;;;;;;;23.13;6.73;;;2.00;99.90;;;;;;4981364;28;20038;-72
2021/04/08 06:10:17;;;;;;;15.90;7.33;;;2.10;99.90;;;;;;4982430;28;20046;-72
2021/04/08 06:12:44;;;;;;;14.33;6.23;;;2.20;99.90;;;;;;4979911;28;20093;-72
2021/04/08 06:15:12;;;;;;;16.57;6.87;;;2.20;99.90;;;;;;4981545;28;20050;-72
2021/04/08 06:17:39;;;;;;;18.63;6.87;;;2.20;99.90;;;;;;4980693;28;20427;-73
2021/04/08 06:20:08;;;;;;;15.17;6.13;;;2.30;99.90;;;;;;4979929;28;20058;-73
2021/04/08 06:22:35;;;;;;;11.37;5.53;;;2.30;99.90;;;;;;4976505;28;20097;-72
2021/04/08 06:25:01;;;;;;;17.87;7.07;;;2.30;99.90;;;;;;4981075;28;20042;-72
2021/04/08 06:27:29;;;;;;;17.93;6.23;;;2.30;99.90;;;;;;4979384;28;20408;-72
2021/04/08 06:29:56;;;;;;;13.83;6.20;;;2.20;99.90;;;;;;4981909;28;20104;-72
2021/04/08 06:32:22;;;;;;;14.10;5.40;;;2.40;99.90;;;;;;4981509;28;20149;-72
2021/04/08 06:34:49;;;;;;;13.73;6.27;;;2.30;99.90;;;;;;4980732;28;20258;-72
2021/04/08 06:37:17;;;;;;;17.47;5.67;;;2.30;99.90;;;;;;4980676;28;20054;-72
2021/04/08 06:39:45;;;;;;;20.10;6.93;;;2.50;99.90;;;;;;4980566;28;20055;-71
2021/04/08 06:42:14;;;;;;;16.60;6.07;;;2.60;99.90;;;;;;4979446;28;20081;-72
2021/04/08 06:44:43;;;;;;;15.67;7.20;;;2.80;99.90;;;;;;4979848;28;20073;-72
2021/04/08 06:47:10;;;;;;;17.20;5.43;;;2.80;99.90;;;;;;4980270;28;20054;-72
2021/04/08 06:49:48;;;;;;;14.30;6.67;;;2.90;99.90;;;;;;4978862;28;20042;-71
2021/04/08 06:52:19;;;;;;;13.23;5.83;;;2.80;99.90;;;;;;4981000;28;20046;-71
2021/04/08 06:54:46;;;;;;;17.80;5.73;;;2.80;99.90;;;;;;4980614;28;20191;-72
2021/04/08 06:57:16;;;;;;;15.50;6.43;;;2.90;99.90;;;;;;4976339;28;20047;-71
2021/04/08 06:59:43;;;;;;;15.50;5.40;;;3.00;99.90;;;;;;4978715;28;20046;-72
2021/04/08 07:02:14;;;;;;;14.27;5.00;;;3.00;99.90;;;;;;4978717;28;20121;-71
2021/04/08 07:04:40;;;;;;;17.17;6.47;;;2.80;99.90;;;;;;4979335;28;20046;-72
2021/04/08 07:07:07;;;;;;;14.07;5.27;;;2.60;99.90;;;;;;4980421;28;20092;-71
2021/04/08 07:09:35;;;;;;;12.83;5.07;;;2.60;99.90;;;;;;4978468;28;20415;-71
2021/04/08 07:12:01;;;;;;;12.97;5.90;;;2.60;99.90;;;;;;4978544;28;20458;-72
2021/04/08 07:14:28;;;;;;;17.73;5.77;;;2.70;99.90;;;;;;4979616;28;20069;-71
2021/04/08 07:16:55;;;;;;;16.83;6.20;;;2.80;99.90;;;;;;4978004;28;20062;-71
2021/04/08 07:19:21;;;;;;;10.80;6.10;;;2.90;99.90;;;;;;4978719;28;20053;-71
2021/04/08 07:21:48;;;;;;;18.47;5.70;;;3.00;99.90;;;;;;4980523;28;20061;-72
2021/04/08 07:24:16;;;;;;;14.63;6.17;;;3.10;99.90;;;;;;4978035;28;20054;-71
2021/04/08 07:26:57;;;;;;;17.03;5.47;;;3.10;99.90;;;;;;4978786;28;20419;-71
2021/04/08 07:29:43;;;;;;;13.47;6.40;;;3.00;99.90;;;;;;4979102;28;20047;-71
2021/04/08 07:32:12;;;;;;;18.60;6.17;;;3.20;99.90;;;;;;4983014;28;20049;-71
2021/04/08 07:34:39;;;;;;;10.37;4.63;;;3.30;99.90;;;;;;4976089;28;20407;-71
2021/04/08 07:37:07;;;;;;;14.47;5.50;;;3.40;99.90;;;;;;4981988;28;20043;-71
2021/04/08 07:39:36;;;;;;;10.37;4.80;;;3.60;99.90;;;;;;4977264;28;20055;-71
2021/04/08 07:42:06;;;;;;;14.97;5.23;;;3.60;99.90;;;;;;4980975;28;20054;-71
2021/04/08 07:44:47;;;;;;;11.87;4.57;;;3.80;99.90;;;;;;4974711;28;20046;-71
2021/04/08 07:47:17;;;;;;;10.90;4.73;;;4.20;99.90;;;;;;4977122;28;20047;-71
2021/04/08 07:49:44;;;;;;;10.53;4.83;;;4.30;99.90;;;;;;4979021;28;20054;-71
2021/04/08 07:52:22;;;;;;;9.80;4.73;;;4.70;99.90;;;;;;4978795;28;20053;-71
2021/04/08 07:55:08;;;;;;;18.67;5.40;;;5.00;99.90;;;;;;4974513;28;20427;-71
2021/04/08 07:57:52;;;;;;;11.07;4.60;;;4.80;99.90;;;;;;4977715;28;20069;-71
2021/04/08 08:00:21;;;;;;;11.47;4.40;;;4.60;99.90;;;;;;4972881;28;20395;-71
2021/04/08 08:02:47;;;;;;;15.33;5.00;;;4.40;99.90;;;;;;4976323;28;20057;-71
2021/04/08 08:05:20;;;;;;;11.73;4.30;;;4.60;99.90;;;;;;4976142;28;20098;-70
2021/04/08 08:07:47;;;;;;;15.60;4.23;;;4.80;99.90;;;;;;4976444;28;20079;-71
2021/04/08 08:10:18;;;;;;;7.37;3.63;;;5.10;99.90;;;;;;4974563;28;20050;-71
2021/04/08 08:12:45;;;;;;;12.80;5.27;;;5.20;99.90;;;;;;4977467;28;20046;-71
2021/04/08 08:15:24;;;;;;;16.23;4.60;;;5.20;99.90;;;;;;4977162;28;20097;-72
2021/04/08 08:17:51;;;;;;;13.20;4.83;;;4.90;99.90;;;;;;4973746;28;20121;-71
2021/04/08 08:20:20;;;;;;;9.97;4.00;;;5.30;99.90;;;;;;4979510;28;20057;-71
2021/04/08 08:22:47;;;;;;;14.93;4.27;;;5.30;99.90;;;;;;4977591;28;20217;-72
2021/04/08 08:25:21;;;;;;;8.83;3.87;;;5.30;99.90;;;;;;4980225;28;20427;-71
2021/04/08 08:27:50;;;;;;;10.63;4.47;;;5.40;99.90;;;;;;4983917;28;20042;-71
2021/04/08 08:30:20;;;;;;;9.77;3.77;;;5.30;99.90;;;;;;4983526;28;20129;-71
2021/04/08 08:33:06;;;;;;;13.30;4.43;;;5.30;99.90;;;;;;4983077;28;20066;-72
2021/04/08 08:35:33;;;;;;;13.03;4.33;;;5.70;99.90;;;;;;4984368;28;20121;-72
2021/04/08 08:38:08;;;;;;;12.67;4.27;;;6.20;99.90;;;;;;4985374;28;20050;-72
2021/04/08 08:40:36;;;;;;;15.57;4.33;;;6.50;99.90;;;;;;4981216;28;20050;-71
2021/04/08 08:43:04;;;;;;;13.80;3.83;;;6.50;99.90;;;;;;4983009;28;20512;-72
2021/04/08 08:45:32;;;;;;;9.77;4.00;;;6.70;99.90;;;;;;4981187;28;20078;-71
2021/04/08 08:48:01;;;;;;;17.77;4.63;;;6.80;99.90;;;;;;4984488;28;20389;-72
2021/04/08 08:50:28;;;;;;;13.53;3.87;;;7.00;99.90;;;;;;4980528;28;20078;-72
2021/04/08 08:52:56;;;;;;;11.00;3.90;;;7.20;99.90;;;;;;4984209;28;20125;-71
2021/04/08 08:55:23;;;;;;;16.07;4.03;;;7.00;99.90;;;;;;4981604;28;20059;-72
2021/04/08 08:57:52;;;;;;;13.33;5.23;;;7.40;99.90;;;;;;4982682;28;20050;-72
2021/04/08 09:00:20;;;;;;;14.55;4.35;;;7.70;99.90;;;;;;4980995;28;20113;-72
2021/04/08 09:02:48;;;;;;;11.15;3.75;;;7.80;99.90;;;;;;4981472;28;20054;-72
2021/04/08 09:05:18;;;;;;;14.65;3.38;;;7.60;99.90;;;;;;4979914;28;20081;-72
2021/04/08 09:07:47;;;;;;;9.20;3.47;;;7.80;99.90;;;;;;4985146;28;20148;-71
2021/04/08 09:10:16;;;;;;;12.50;3.33;;;8.40;99.90;;;;;;4978386;28;20050;-72
2021/04/08 09:12:43;;;;;;;10.88;4.10;;;9.00;99.90;;;;;;4981976;28;20042;-71
2021/04/08 10:56:28;;;;;;;6.03;2.00;;;6.80;99.90;;;;;;5010201;23;20402;-69
2021/04/08 10:59:14;;;;;;;7.20;3.27;;;6.80;99.90;;;;;;4993689;28;20415;-71
2021/04/08 11:01:40;;;;;;;12.53;2.47;;;7.00;99.90;;;;;;4986435;28;20303;-70
2021/04/08 11:04:07;;;;;;;6.47;2.20;;;6.90;99.90;;;;;;5007070;28;20050;-70
2021/04/08 11:06:34;;;;;;;5.63;2.30;;;6.70;99.90;;;;;;4989359;28;20627;-72
2021/04/08 11:09:00;;;;;;;8.17;2.80;;;6.80;99.90;;;;;;4981492;28;20049;-70
2021/04/08 11:11:28;;;;;;;8.93;2.67;;;6.80;99.90;;;;;;4986825;28;20137;-70
2021/04/08 11:13:54;;;;;;;4.63;1.97;;;6.90;99.90;;;;;;4986075;28;20384;-71
2021/04/08 11:16:21;;;;;;;4.73;1.83;;;6.90;99.90;;;;;;4986588;28;20061;-70
2021/04/08 11:18:48;;;;;;;8.77;2.33;;;6.60;99.90;;;;;;4985495;28;20054;-71
2021/04/08 11:21:15;;;;;;;7.93;2.03;;;6.60;99.90;;;;;;4999478;28;20049;-71
2021/04/08 11:23:42;;;;;;;4.00;1.77;;;6.70;99.90;;;;;;5005848;28;20058;-70
2021/04/08 11:26:09;;;;;;;5.33;1.63;;;6.80;99.90;;;;;;5006205;28;20505;-71
2021/04/08 11:28:41;;;;;;;6.30;1.87;;;6.70;99.90;;;;;;5003843;28;20302;-70
2021/04/08 11:31:14;;;;;;;3.20;1.40;;;6.60;99.90;;;;;;5005295;28;20062;-70
2021/04/08 11:33:41;;;;;;;4.00;1.30;;;6.90;99.90;;;;;;4988336;28;20054;-70
2021/04/08 11:36:17;;;;;;;5.07;1.27;;;7.40;99.90;;;;;;4997037;28;20100;-70
2021/04/08 11:38:45;;;;;;;8.18;1.52;;;7.80;99.90;;;;;;4994572;28;20050;-70
2021/04/08 11:41:13;;;;;;;5.60;1.45;;;8.40;99.10;;;;;;4992345;28;20458;-71
2021/04/08 11:43:49;;;;;;;5.78;1.50;;;8.40;99.30;;;;;;4978506;28;20214;-70
2021/04/08 11:46:27;;;;;;;6.53;1.70;;;8.60;98.90;;;;;;4981149;28;20050;-74
2021/04/08 11:48:54;;;;;;;4.35;1.70;;;8.30;98.90;;;;;;4979252;28;20047;-76
2021/04/08 11:51:23;;;;;;;4.07;1.58;;;8.30;98.20;;;;;;4976616;28;20442;-72
2021/04/08 11:53:51;;;;;;;3.33;1.42;;;8.20;98.90;;;;;;4975912;28;20053;-72
2021/04/08 11:56:32;;;;;;;5.88;1.55;;;8.80;97.90;;;;;;4979186;28;20057;-71
2021/04/08 11:59:12;;;;;;;3.78;1.52;;;10.40;99.90;;;;;;4979909;28;20133;-71
2021/04/08 12:01:41;;;;;;;7.22;1.30;;;11.70;96.70;;;;;;4980033;28;20046;-70
2021/04/08 12:04:15;;;;;;;6.28;1.35;;;11.80;92.10;;;;;;4980583;28;20054;-71
2021/04/08 12:06:44;;;;;;;5.30;1.63;;;11.60;87.70;;;;;;4983174;28;20053;-71
2021/04/08 12:09:11;;;;;;;3.50;1.30;;;12.40;87.10;;;;;;4998593;28;20050;-70
2021/04/08 12:11:48;;;;;;;6.63;1.63;;;12.20;77.30;;;;;;5006072;28;20053;-72
2021/04/08 12:14:16;;;;;;;5.40;1.60;;;12.20;81.40;;;;;;4998794;28;20058;-71
2021/04/08 12:16:43;;;;;;;4.82;1.50;;;11.40;79.70;;;;;;4989824;28;20069;-70
2021/04/08 12:19:09;;;;;;;;;;;10.50;84.60;;;;;;4983682;28;20054;-70
2021/04/08 12:21:35;;;;;;;4.63;1.80;;;9.50;90.00;;;;;;4984800;28;19993;-71
2021/04/08 12:24:09;;;;;;;4.90;1.88;;;8.70;91.80;;;;;;4980927;28;20061;-71
2021/04/08 12:26:37;;;;;;;7.35;1.83;;;8.70;91.90;;;;;;4981396;28;20065;-70
2021/04/08 12:29:05;;;;;;;7.10;2.15;;;8.40;94.30;;;;;;4981124;28;20081;-72
2021/04/08 12:31:33;;;;;;;5.90;1.73;;;8.40;95.00;;;;;;4973400;28;20065;-71
2021/04/08 12:33:59;;;;;;;4.88;1.40;;;8.10;93.20;;;;;;4980452;28;20481;-70
2021/04/08 12:36:26;;;;;;;4.10;1.50;;;8.30;93.60;;;;;;4983344;28;20066;-71
2021/04/08 12:38:53;;;;;;;5.82;1.42;;;8.00;92.20;;;;;;4992902;28;20082;-70
2021/04/08 12:41:20;;;;;;;5.38;1.65;;;7.60;91.80;;;;;;5003071;28;20057;-72
2021/04/08 12:43:46;;;;;;;7.65;1.77;;;7.50;92.60;;;;;;5002010;28;20161;-73
2021/04/08 12:46:13;;;;;;;3.23;1.10;;;7.10;91.80;;;;;;5002698;28;20076;-71
2021/04/08 12:48:40;;;;;;;4.10;1.37;;;6.90;90.80;;;;;;4994926;28;20053;-71
2021/04/08 12:51:07;;;;;;;5.20;1.40;;;7.00;91.50;;;;;;4997137;28;20544;-71
2021/04/08 12:53:34;;;;;;;7.13;1.70;;;7.30;92.10;;;;;;4982482;28;20057;-70
2021/04/08 12:56:00;;;;;;;3.58;1.40;;;7.70;91.50;;;;;;4976395;28;20454;-72
2021/04/08 12:58:27;;;;;;;5.93;1.65;;;7.70;91.40;;;;;;4976519;28;20053;-72
2021/04/08 13:00:54;;;;;;;5.83;1.60;;;7.50;91.30;;;;;;4977473;28;20062;-71
2021/04/08 13:03:20;;;;;;;5.13;1.87;;;7.50;91.90;;;;;;4980406;28;20080;-71
2021/04/08 13:05:47;;;;;;;8.90;1.73;;;7.90;92.70;;;;;;4982373;28;20065;-72
2021/04/08 13:08:14;;;;;;;5.80;1.80;;;8.40;92.70;;;;;;4979338;28;20050;-70
2021/04/08 13:10:41;;;;;;;5.55;1.80;;;8.60;92.80;;;;;;4981234;28;20414;-70
2021/04/08 13:13:09;;;;;;;4.85;1.60;;;8.70;92.60;;;;;;4987205;28;20144;-71
2021/04/08 13:15:36;;;;;;;4.82;1.70;;;8.50;95.10;;;;;;4984072;28;20097;-71
2021/04/08 13:18:03;;;;;;;4.60;1.60;;;8.40;94.30;;;;;;4986242;28;20061;-71
2021/04/08 13:20:31;;;;;;;8.13;1.90;;;8.40;92.90;;;;;;4986915;28;20057;-70
2021/04/08 13:22:59;;;;;;;5.75;1.63;;;8.40;94.70;;;;;;4982592;28;20128;-70
2021/04/08 13:25:26;;;;;;;6.60;1.77;;;8.50;95.20;;;;;;4986723;28;20053;-70
2021/04/08 13:27:53;;;;;;;8.05;2.00;;;8.60;93.00;;;;;;4985503;28;20082;-72
2021/04/08 13:30:22;;;;;;;6.65;2.30;;;8.20;92.10;;;;;;4985088;28;20511;-70
2021/04/08 13:32:49;;;;;;;8.75;2.03;;;7.90;92.50;;;;;;4992617;28;20053;-70
2021/04/08 13:35:16;;;;;;;4.68;2.10;;;7.60;92.90;;;;;;4980064;28;20050;-71
2021/04/08 13:37:44;;;;;;;6.28;2.05;;;7.90;95.40;;;;;;4984843;28;20050;-71
2021/04/08 13:40:13;;;;;;;7.93;2.20;;;7.70;92.00;;;;;;4986641;28;20108;-71
2021/04/08 13:42:41;;;;;;;4.95;1.70;;;7.80;93.10;;;;;;4987456;28;20058;-72
2021/04/08 13:45:09;;;;;;;6.13;2.03;;;7.90;92.60;;;;;;4987735;28;20066;-71
2021/04/08 13:47:36;;;;;;;6.28;1.80;;;8.00;92.20;;;;;;4984188;28;20058;-70
2021/04/08 13:50:03;;;;;;;7.45;1.80;;;7.90;92.00;;;;;;4986945;28;20085;-73
2021/04/08 13:52:30;;;;;;;5.05;1.88;;;8.10;92.90;;;;;;4986218;28;20054;-71
2021/04/08 13:54:57;;;;;;;;;;;8.30;92.40;;;;;;4987068;28;20062;-70
2021/04/08 13:57:25;;;;;;;6.00;1.75;;;8.40;94.50;;;;;;4985476;28;19926;-71
2021/04/08 13:59:51;;;;;;;9.43;2.03;;;8.50;91.90;;;;;;4985183;28;20057;-71
2021/04/08 14:02:18;;;;;;;7.93;2.25;;;8.50;92.20;;;;;;4996367;28;20054;-70
2021/04/08 14:04:44;;;;;;;;;;;8.60;91.80;;;;;;5005767;28;20064;-71
2021/04/08 14:07:11;;;;;;;6.65;1.80;;;8.60;92.10;;;;;;4998741;28;19953;-71
2021/04/08 14:09:38;;;;;;;5.07;1.80;;;8.90;91.90;;;;;;4987011;28;20375;-70
2021/04/08 14:12:05;;;;;;;5.07;1.90;;;8.70;89.30;;;;;;4997619;28;20123;-70
2021/04/08 14:14:32;;;;;;;5.45;1.60;;;8.40;90.20;;;;;;5005263;28;20057;-71
2021/04/08 14:16:59;;;;;;;5.28;1.70;;;8.20;89.30;;;;;;4997307;28;20055;-71
2021/04/08 14:19:26;;;;;;;4.35;1.45;;;8.10;89.10;;;;;;4983154;28;20055;-71
2021/04/08 14:21:53;;;;;;;5.68;2.10;;;7.90;90.20;;;;;;4983866;28;20057;-73
2021/04/08 14:24:21;;;;;;;7.00;2.00;;;7.60;87.50;;;;;;4987312;28;20113;-77
2021/04/08 14:26:48;;;;;;;6.32;1.88;;;7.70;90.50;;;;;;4995676;28;20050;-73
2021/04/08 14:29:17;;;;;;;7.78;2.22;;;7.70;90.20;;;;;;4995351;28;20782;-70
2021/04/08 14:31:45;;;;;;;4.43;1.73;;;7.60;90.50;;;;;;4974397;28;20058;-70
2021/04/08 14:34:12;;;;;;;7.50;1.77;;;7.50;90.40;;;;;;4996303;28;20050;-71
2021/04/08 14:36:39;;;;;;;7.07;2.17;;;7.40;91.70;;;;;;4992929;28;20054;-70
2021/04/08 14:39:06;;;;;;;8.68;2.15;;;7.50;94.30;;;;;;4988417;28;20046;-69